createdAt,value
2022-08-05T00:01:36.467Z,100201.00
2022-08-05T00:04:17.757Z,100203.84
2022-08-05T00:06:47.304Z,100196.06
2022-08-05T00:09:19.832Z,100197.91
2022-08-05T00:11:56.199Z,100199.31
2022-08-05T00:14:31.403Z,100197.59
2022-08-05T00:17:01.675Z,100199.31
2022-08-05T00:19:32.831Z,100207.28
2022-08-05T00:22:02.214Z,100200.44
2022-08-05T00:24:30.627Z,100195.34
2022-08-05T00:27:01.265Z,100208.69
2022-08-05T00:29:37.610Z,100197.34
2022-08-05T00:32:12.362Z,100200.44
2022-08-05T00:35:03.369Z,100203.47
2022-08-05T00:37:50.355Z,100200.34
2022-08-05T00:40:27.550Z,100200.22
2022-08-05T00:42:59.764Z,100193.41
2022-08-05T00:45:38.823Z,100190.25
2022-08-05T00:48:12.075Z,100193.69
2022-08-05T00:50:44.264Z,100200.66
2022-08-05T00:54:01.401Z,100188.56
2022-08-05T00:56:02.685Z,100186.00
2022-08-05T00:58:33.051Z,100188.59
2022-08-05T01:01:02.606Z,100186.28
2022-08-05T01:03:37.462Z,100182.84
2022-08-05T01:06:05.967Z,100187.69
2022-08-05T01:08:43.117Z,100186.41
2022-08-05T01:11:22.118Z,100179.59
2022-08-05T01:14:08.698Z,100196.03
2022-08-05T01:16:41.560Z,100191.47
2022-08-05T01:19:36.775Z,100182.97
2022-08-05T01:22:28.320Z,100191.00
2022-08-05T01:25:40.020Z,100179.91
2022-08-05T01:28:27.652Z,100185.16
2022-08-05T01:31:02.880Z,100188.84
2022-08-05T01:33:35.971Z,100187.41
2022-08-05T01:36:13.224Z,100187.97
2022-08-05T01:38:48.438Z,100194.03
2022-08-05T01:41:21.979Z,100194.97
2022-08-05T01:43:53.400Z,100189.28
2022-08-05T01:46:42.963Z,100194.44
2022-08-05T01:49:24.215Z,100193.75
2022-08-05T01:51:59.258Z,100188.00
2022-08-05T01:54:32.807Z,100195.00
2022-08-05T01:58:09.489Z,100193.00
2022-08-05T01:59:53.725Z,100196.13
2022-08-05T02:02:26.259Z,100193.44
2022-08-05T02:05:01.245Z,100194.13
2022-08-05T02:07:32.126Z,100190.78
2022-08-05T02:10:03.273Z,100196.16
2022-08-05T02:12:39.760Z,100191.41
2022-08-05T02:15:14.380Z,100187.47
2022-08-05T02:18:28.292Z,100202.31
2022-08-05T02:20:51.265Z,100200.13
2022-08-05T02:23:24.882Z,100183.31
2022-08-05T02:25:54.222Z,100188.88
2022-08-05T02:28:28.995Z,100185.66
2022-08-05T02:31:06.036Z,100181.53
2022-08-05T02:33:40.781Z,100187.34
2022-08-05T02:36:15.611Z,100176.13
2022-08-05T02:38:53.192Z,100179.28
2022-08-05T02:41:23.703Z,100175.19
2022-08-05T02:44:02.747Z,100179.84
2022-08-05T02:46:43.890Z,100172.19
2022-08-05T02:49:26.848Z,100182.81
2022-08-05T02:52:02.724Z,100181.34
2022-08-05T02:54:35.958Z,100178.78
2022-08-05T02:57:10.150Z,100170.25
2022-08-05T02:59:57.621Z,100171.69
2022-08-05T03:02:30.783Z,100169.00
2022-08-05T03:04:59.961Z,100171.78
2022-08-05T03:07:40.315Z,100171.78
2022-08-05T03:10:22.002Z,100172.53
2022-08-05T03:12:53.686Z,100165.13
2022-08-05T03:15:23.369Z,100170.16
2022-08-05T03:17:56.015Z,100163.91
2022-08-05T03:20:26.422Z,100167.00
2022-08-05T03:22:57.682Z,100163.72
2022-08-05T03:25:33.269Z,100164.31
2022-08-05T03:28:18.562Z,100154.38
2022-08-05T03:30:48.967Z,100153.97
2022-08-05T03:33:18.954Z,100156.53
2022-08-05T03:35:48.496Z,100155.41
2022-08-05T03:38:32.917Z,100155.94
2022-08-05T03:41:04.063Z,100159.22
2022-08-05T03:44:08.815Z,100161.59
2022-08-05T03:46:30.064Z,100163.16
2022-08-05T03:49:02.255Z,100158.41
2022-08-05T03:52:38.456Z,100158.78
2022-08-05T03:55:51.036Z,100166.41
2022-08-05T03:57:35.158Z,100166.41
2022-08-05T04:00:15.591Z,100158.91
2022-08-05T04:02:51.961Z,100158.91
2022-08-05T04:05:33.997Z,100166.59
2022-08-05T04:08:05.819Z,100171.25
2022-08-05T04:10:51.591Z,100166.00
2022-08-05T04:13:21.688Z,100161.34
2022-08-05T04:16:02.973Z,100167.84
2022-08-05T04:18:34.464Z,100161.72
2022-08-05T04:21:05.331Z,100163.41
2022-08-05T04:24:04.979Z,100159.69
2022-08-05T04:26:23.462Z,100164.53
2022-08-05T04:28:52.115Z,100154.84
2022-08-05T04:31:20.816Z,100163.81
2022-08-05T04:33:54.924Z,100158.75
2022-08-05T04:36:45.485Z,100164.59
2022-08-05T04:39:14.819Z,100158.38
2022-08-05T04:41:42.982Z,100168.75
2022-08-05T04:44:13.728Z,100162.13
2022-08-05T04:46:41.829Z,100166.81
2022-08-05T04:49:15.330Z,100163.88
2022-08-05T04:51:45.567Z,100164.31
2022-08-05T04:54:14.930Z,100169.09
2022-08-05T04:56:43.692Z,100168.41
2022-08-05T04:59:22.442Z,100165.34
2022-08-05T05:02:07.542Z,100170.75
2022-08-05T05:04:49.865Z,100169.09
2022-08-05T05:07:23.928Z,100162.34
2022-08-05T05:09:57.705Z,100159.50
2022-08-05T05:12:27.415Z,100154.31
2022-08-05T05:14:55.897Z,100163.28
2022-08-05T05:17:55.400Z,100163.47
2022-08-05T05:20:13.732Z,100156.66
2022-08-05T05:22:44.145Z,100156.94
2022-08-05T05:25:16.659Z,100159.97
2022-08-05T05:27:53.737Z,100160.28
2022-08-05T05:30:29.508Z,100161.81
2022-08-05T05:33:08.805Z,100156.41
2022-08-05T05:35:45.586Z,100149.91
2022-08-05T05:38:22.715Z,100148.06
2022-08-05T05:40:56.164Z,100153.03
2022-08-05T05:43:57.360Z,100155.91
2022-08-05T05:46:17.598Z,100155.91
2022-08-05T05:48:48.477Z,100155.03
2022-08-05T05:51:21.296Z,100149.47
2022-08-05T05:53:57.239Z,100146.88
2022-08-05T05:56:32.432Z,100143.47
2022-08-05T05:59:05.267Z,100150.13
2022-08-05T06:01:38.026Z,100152.09
2022-08-05T06:04:08.368Z,100151.25
2022-08-05T06:06:41.682Z,100150.78
2022-08-05T06:09:17.729Z,100149.84
2022-08-05T06:11:59.932Z,100143.31
2022-08-05T06:14:30.707Z,100142.56
2022-08-05T06:16:59.279Z,100152.94
2022-08-05T06:19:35.242Z,100156.44
2022-08-05T06:22:04.006Z,100153.28
2022-08-05T06:24:33.980Z,100158.09
2022-08-05T06:27:04.076Z,100157.53
2022-08-05T06:29:49.492Z,100147.09
2022-08-05T06:32:25.393Z,100150.28
2022-08-05T06:34:56.331Z,100157.78
2022-08-05T06:37:57.286Z,100145.81
2022-08-05T06:40:18.237Z,100156.16
2022-08-05T06:42:51.879Z,100157.09
2022-08-05T06:45:44.839Z,100147.91
2022-08-05T06:48:36.988Z,100151.81
2022-08-05T06:50:58.689Z,100153.59
2022-08-05T06:53:29.233Z,100155.25
2022-08-05T06:56:00.837Z,100154.69
2022-08-05T06:58:36.440Z,100156.59
2022-08-05T07:01:06.787Z,100153.44
2022-08-05T07:03:35.493Z,100152.94
2022-08-05T07:06:05.864Z,100154.34
2022-08-05T07:08:42.710Z,100149.59
2022-08-05T07:11:15.323Z,100149.88
2022-08-05T07:14:01.559Z,100153.88
2022-08-05T07:17:58.981Z,100151.22
2022-08-05T07:22:29.102Z,100150.28
2022-08-05T07:24:59.658Z,100154.69
2022-08-05T07:27:57.490Z,100148.56
2022-08-05T07:30:33.315Z,100143.19
2022-08-05T07:33:05.199Z,100148.00
2022-08-05T07:36:04.593Z,100141.53
2022-08-05T07:38:33.312Z,100142.06
2022-08-05T07:42:07.407Z,100136.69
2022-08-05T07:43:56.632Z,100141.66
2022-08-05T07:46:26.608Z,100139.94
2022-08-05T07:49:01.472Z,100143.03
2022-08-05T07:51:40.554Z,100137.59
2022-08-05T07:54:10.543Z,100133.03
2022-08-05T07:57:01.556Z,100132.16
2022-08-05T07:59:38.271Z,100142.25
2022-08-05T08:02:10.655Z,100135.97
2022-08-05T08:04:46.574Z,100135.09
2022-08-05T08:07:22.791Z,100146.16
2022-08-05T08:09:54.922Z,100141.72
2022-08-05T08:12:36.873Z,100141.72
2022-08-05T08:15:15.038Z,100136.47
2022-08-05T08:17:50.759Z,100136.28
2022-08-05T08:20:59.730Z,100133.03
2022-08-05T08:23:59.798Z,100138.44
2022-08-05T08:25:59.879Z,100134.88
2022-08-05T08:28:36.394Z,100128.91
2022-08-05T08:31:14.569Z,100129.19
2022-08-05T08:33:46.934Z,100130.00
2022-08-05T08:36:38.691Z,100128.25
2022-08-05T08:39:15.598Z,100127.41
2022-08-05T08:41:52.697Z,100137.41
2022-08-05T08:45:18.391Z,100126.84
2022-08-05T08:48:06.205Z,100131.19
2022-08-05T08:50:30.988Z,100127.41
2022-08-05T08:53:08.015Z,100131.41
2022-08-05T08:56:04.459Z,100138.13
2022-08-05T08:58:36.982Z,100125.94
2022-08-05T09:01:16.648Z,100118.25
2022-08-05T09:03:54.440Z,100122.59
2022-08-05T09:06:29.741Z,100126.66
2022-08-05T09:09:00.578Z,100131.91
2022-08-05T09:11:53.637Z,100123.03
2022-08-05T09:14:57.192Z,100123.13
2022-08-05T09:17:09.649Z,100117.25
2022-08-05T09:20:01.896Z,100110.13
2022-08-05T09:22:31.314Z,100113.63
2022-08-05T09:25:02.193Z,100110.13
2022-08-05T09:28:03.830Z,100109.66
2022-08-05T09:30:30.522Z,100098.34
2022-08-05T09:33:04.597Z,100111.44
2022-08-05T09:35:34.545Z,100102.72
2022-08-05T09:38:16.749Z,100096.31
2022-08-05T09:40:52.742Z,100098.84
2022-08-05T09:43:40.883Z,100098.09
2022-08-05T09:46:27.527Z,100086.88
2022-08-05T09:49:08.105Z,100096.91
2022-08-05T09:51:48.862Z,100087.03
2022-08-05T09:54:30.645Z,100090.22
2022-08-05T09:57:01.493Z,100085.03
2022-08-05T09:59:35.203Z,100085.09
2022-08-05T10:02:05.998Z,100074.34
2022-08-05T10:04:39.741Z,100071.50
2022-08-05T10:07:20.563Z,100076.75
2022-08-05T10:10:14.362Z,100068.28
2022-08-05T10:12:49.382Z,100066.72
2022-08-05T10:15:24.013Z,100061.59
2022-08-05T10:18:16.703Z,100049.06
2022-08-05T10:20:48.592Z,100062.94
2022-08-05T10:23:34.321Z,100055.34
2022-08-05T10:26:14.303Z,100058.38
2022-08-05T10:28:45.114Z,100047.44
2022-08-05T10:32:54.989Z,100052.50
2022-08-05T10:34:03.391Z,100045.44
2022-08-05T10:36:32.166Z,100043.44
2022-08-05T10:39:11.535Z,100047.00
2022-08-05T10:41:48.371Z,100036.31
2022-08-05T10:44:20.343Z,100040.56
2022-08-05T10:46:51.093Z,100040.63
2022-08-05T10:49:27.590Z,100042.09
2022-08-05T10:52:05.039Z,100035.56
2022-08-05T10:55:05.174Z,100041.47
2022-08-05T10:57:35.015Z,100035.41
2022-08-05T11:00:20.052Z,100027.63
2022-08-05T11:03:24.371Z,100027.44
2022-08-05T11:06:08.460Z,100031.06
2022-08-05T11:09:32.013Z,100025.00
2022-08-05T11:12:54.279Z,100028.16
2022-08-05T11:16:00.174Z,100018.06
2022-08-05T11:18:30.047Z,100007.97
2022-08-05T11:21:02.095Z,100015.81
2022-08-05T11:24:03.948Z,100021.72
2022-08-05T11:26:33.391Z,100012.03
2022-08-05T11:29:12.538Z,100015.41
2022-08-05T11:31:57.340Z,100009.50
2022-08-05T11:34:39.717Z,100011.81
2022-08-05T11:38:29.278Z,100014.34
2022-08-05T11:40:02.702Z,100004.00
2022-08-05T11:42:37.840Z,100011.19
2022-08-05T11:45:26.799Z,100016.66
2022-08-05T11:47:59.561Z,100013.47
2022-08-05T11:50:28.699Z,100019.59
2022-08-05T11:52:58.319Z,100016.44
2022-08-05T11:55:31.819Z,100021.66
2022-08-05T11:58:09.906Z,100024.06
2022-08-05T12:00:44.098Z,100012.47
2022-08-05T12:03:28.930Z,100023.41
2022-08-05T12:06:02.147Z,100017.22
2022-08-05T12:08:32.683Z,100003.75
2022-08-05T12:11:06.276Z,100004.66
2022-08-05T12:13:48.933Z,100008.28
2022-08-05T12:16:26.961Z,100002.00
2022-08-05T12:18:56.053Z,100004.69
2022-08-05T12:21:26.746Z,99999.75
2022-08-05T12:24:04.827Z,99998.31
2022-08-05T12:26:35.503Z,99988.47
2022-08-05T12:29:05.630Z,99989.66
2022-08-05T12:31:45.884Z,99994.22
2022-08-05T12:34:23.445Z,99992.16
2022-08-05T12:36:54.537Z,99994.09
2022-08-05T12:39:34.615Z,99993.78
2022-08-05T12:42:14.318Z,99992.88
2022-08-05T12:44:44.625Z,99993.22
2022-08-05T12:47:17.782Z,99987.91
2022-08-05T12:50:03.594Z,99989.72
2022-08-05T12:52:39.230Z,99989.06
2022-08-05T12:55:23.506Z,99988.88
2022-08-05T12:58:49.099Z,99990.25
2022-08-05T13:02:05.043Z,99980.16
2022-08-05T13:03:38.921Z,99973.81
2022-08-05T13:06:13.000Z,99971.97
2022-08-05T13:08:41.773Z,99968.16
2022-08-05T13:12:01.179Z,99969.25
2022-08-05T13:14:25.038Z,99960.03
2022-08-05T13:17:09.285Z,99958.09
2022-08-05T13:19:40.296Z,99957.88
2022-08-05T13:22:27.704Z,99954.25
2022-08-05T13:25:00.858Z,99949.47
2022-08-05T13:27:38.167Z,99951.38
2022-08-05T13:30:35.066Z,99956.53
2022-08-05T13:32:57.043Z,99947.41
2022-08-05T13:35:47.331Z,99934.00
2022-08-05T13:38:30.552Z,99939.34
2022-08-05T13:41:00.297Z,99939.44
2022-08-05T13:43:45.723Z,99931.56
2022-08-05T13:46:30.745Z,99934.44
2022-08-05T13:49:11.688Z,99936.31
2022-08-05T13:51:46.166Z,99934.16
2022-08-05T13:54:16.935Z,99926.47
2022-08-05T13:56:50.819Z,99927.84
2022-08-05T13:59:24.085Z,99918.03
2022-08-05T14:01:58.414Z,99920.41
2022-08-05T14:04:50.069Z,99915.00
2022-08-05T14:07:25.715Z,99907.75
2022-08-05T14:10:12.118Z,99901.78
2022-08-05T14:12:42.735Z,99906.81
2022-08-05T14:16:05.218Z,99897.59
2022-08-05T14:18:01.111Z,99907.09
2022-08-05T14:20:30.783Z,99904.38
2022-08-05T14:23:00.836Z,99898.19
2022-08-05T14:25:30.789Z,99900.75
2022-08-05T14:27:58.952Z,99893.22
2022-08-05T14:30:28.262Z,99901.78
2022-08-05T14:32:58.833Z,99885.38
2022-08-05T14:35:37.015Z,99889.09
2022-08-05T14:38:32.315Z,99887.31
2022-08-05T14:41:06.906Z,99891.44
2022-08-05T14:43:58.883Z,99896.00
2022-08-05T14:46:28.794Z,99888.16
2022-08-05T14:49:03.490Z,99892.50
2022-08-05T14:51:35.967Z,99883.97
2022-08-05T14:54:27.172Z,99891.78
2022-08-05T14:56:55.793Z,99875.63
2022-08-05T14:59:23.912Z,99876.69
2022-08-05T15:01:53.747Z,99876.41
2022-08-05T15:04:22.734Z,99869.59
2022-08-05T15:06:51.695Z,99871.28
2022-08-05T15:09:53.441Z,99874.41
2022-08-05T15:12:11.441Z,99874.66
2022-08-05T15:14:48.429Z,99864.63
2022-08-05T15:17:45.807Z,99879.03
2022-08-05T15:20:17.229Z,99881.34
2022-08-05T15:22:54.370Z,99879.34
2022-08-05T15:25:51.887Z,99877.78
2022-08-05T15:28:16.174Z,99871.69
2022-08-05T15:30:45.828Z,99872.53
2022-08-05T15:34:05.979Z,99866.63
2022-08-05T15:36:04.415Z,99857.66
2022-08-05T15:38:36.466Z,99851.69
2022-08-05T15:41:22.507Z,99853.22
2022-08-05T15:43:51.790Z,99850.31
2022-08-05T15:46:21.458Z,99850.75
2022-08-05T15:49:00.618Z,99850.16
2022-08-05T15:52:13.398Z,99846.28
2022-08-05T15:54:34.491Z,99840.81
2022-08-05T15:57:07.327Z,99845.81
2022-08-05T15:59:38.106Z,99846.66
2022-08-05T16:02:09.725Z,99847.78
2022-08-05T16:04:43.298Z,99856.47
2022-08-05T16:07:13.203Z,99842.72
2022-08-05T16:09:43.466Z,99840.66
2022-08-05T16:12:13.265Z,99840.84
2022-08-05T16:14:43.644Z,99838.09
2022-08-05T16:17:12.776Z,99843.84
2022-08-05T16:20:05.576Z,99832.41
2022-08-05T16:22:33.975Z,99842.50
2022-08-05T16:25:07.866Z,99842.88
2022-08-05T16:27:46.952Z,99839.16
2022-08-05T16:30:29.404Z,99831.81
2022-08-05T16:32:57.968Z,99834.72
2022-08-05T16:35:28.301Z,99834.31
2022-08-05T16:38:02.384Z,99831.56
2022-08-05T16:40:52.001Z,99833.59
2022-08-05T16:43:32.283Z,99829.19
2022-08-05T16:46:04.278Z,99826.00
2022-08-05T16:48:37.723Z,99822.00
2022-08-05T16:51:09.869Z,99827.66
2022-08-05T16:54:03.187Z,99828.25
2022-08-05T16:56:30.387Z,99830.25
2022-08-05T16:59:00.886Z,99822.00
2022-08-05T17:01:54.783Z,99822.63
2022-08-05T17:04:26.872Z,99825.06
2022-08-05T17:07:00.179Z,99828.78
2022-08-05T17:09:29.995Z,99818.41
2022-08-05T17:11:59.841Z,99823.84
2022-08-05T17:14:34.404Z,99821.91
2022-08-05T17:17:06.781Z,99831.75
2022-08-05T17:19:45.565Z,99838.41
2022-08-05T17:22:24.366Z,99832.50
2022-08-05T17:24:58.009Z,99832.84
2022-08-05T17:27:33.712Z,99833.09
2022-08-05T17:30:11.989Z,99829.16
2022-08-05T17:32:47.168Z,99837.88
2022-08-05T17:35:20.713Z,99835.69
2022-08-05T17:37:50.564Z,99839.59
2022-08-05T17:40:22.492Z,99833.31
2022-08-05T17:42:52.823Z,99837.59
2022-08-05T17:45:37.940Z,99834.53
2022-08-05T17:48:08.051Z,99833.97
2022-08-05T17:50:36.379Z,99830.06
2022-08-05T17:53:08.343Z,99829.47
2022-08-05T17:55:37.570Z,99833.72
2022-08-05T17:58:09.704Z,99834.00
2022-08-05T18:00:45.093Z,99835.91
2022-08-05T18:06:11.313Z,99834.94
2022-08-05T18:08:44.911Z,99840.88
2022-08-05T18:11:23.153Z,99840.25
2022-08-05T18:13:53.102Z,99834.34
2022-08-05T18:16:22.653Z,99833.50
2022-08-05T18:18:50.937Z,99828.69
2022-08-05T18:21:21.233Z,99832.25
2022-08-05T18:23:54.282Z,99828.66
2022-08-05T18:26:29.602Z,99831.78
2022-08-05T18:29:00.625Z,99830.31
2022-08-05T18:31:33.775Z,99836.34
2022-08-05T18:34:05.962Z,99831.84
2022-08-05T18:36:36.384Z,99841.06
2022-08-05T18:39:09.630Z,99847.09
2022-08-05T18:41:55.691Z,99845.13
2022-08-05T18:44:34.618Z,99850.72
2022-08-05T18:47:05.459Z,99847.91
2022-08-05T18:49:58.183Z,99852.34
2022-08-05T18:52:36.194Z,99849.06
2022-08-05T18:55:10.615Z,99851.19
2022-08-05T18:57:43.229Z,99846.78
2022-08-05T19:00:20.826Z,99847.19
2022-08-05T19:02:54.734Z,99850.34
2022-08-05T19:06:13.369Z,99851.16
2022-08-05T19:08:12.249Z,99846.75
2022-08-05T19:10:42.168Z,99842.56
2022-08-05T19:13:12.479Z,99851.59
2022-08-05T19:15:58.260Z,99858.44
2022-08-05T19:18:30.467Z,99856.63
2022-08-05T19:20:59.670Z,99848.78
2022-08-05T19:24:07.090Z,99853.84
2022-08-05T19:26:19.925Z,99857.69
2022-08-05T19:28:48.030Z,99857.16
2022-08-05T19:31:19.522Z,99864.28
2022-08-05T19:33:56.019Z,99852.47
2022-08-05T19:36:26.093Z,99864.13
2022-08-05T19:38:55.196Z,99860.97
2022-08-05T19:41:58.434Z,99863.22
2022-08-05T19:44:18.804Z,99858.13
2022-08-05T19:46:47.308Z,99858.91
2022-08-05T19:49:20.135Z,99856.47
2022-08-05T19:52:08.807Z,99853.88
2022-08-05T19:54:37.207Z,99855.06
2022-08-05T19:57:09.491Z,99859.00
2022-08-05T19:59:56.195Z,99863.13
2022-08-05T20:02:31.265Z,99855.97
2022-08-05T20:05:01.191Z,99855.06
2022-08-05T20:07:46.771Z,99858.75
2022-08-05T20:10:16.621Z,99868.44
2022-08-05T20:12:47.983Z,99875.41
2022-08-05T20:15:23.374Z,99875.38
2022-08-05T20:18:10.320Z,99868.44
2022-08-05T20:20:56.917Z,99873.41
2022-08-05T20:23:39.929Z,99878.72
2022-08-05T20:26:16.423Z,99882.59
2022-08-05T20:28:48.589Z,99888.53
2022-08-05T20:31:17.209Z,99890.69
2022-08-05T20:33:45.971Z,99887.25
2022-08-05T20:36:18.055Z,99889.69
2022-08-05T20:38:54.068Z,99889.50
2022-08-05T20:41:43.971Z,99889.69
2022-08-05T20:44:17.074Z,99889.81
2022-08-05T20:46:48.206Z,99884.66
2022-08-05T20:49:18.492Z,99887.19
2022-08-05T20:51:54.358Z,99888.72
2022-08-05T20:54:22.777Z,99897.94
2022-08-05T20:56:53.086Z,99889.28
2022-08-05T20:59:27.103Z,99902.00
2022-08-05T21:02:09.502Z,99897.59
2022-08-05T21:04:39.139Z,99891.16
2022-08-05T21:07:09.202Z,99894.06
2022-08-05T21:09:37.357Z,99896.94
2022-08-05T21:12:19.924Z,99900.19
2022-08-05T21:14:48.290Z,99898.00
2022-08-05T21:17:16.745Z,99894.63
2022-08-05T21:19:48.018Z,99896.97
2022-08-05T21:22:23.247Z,99902.94
2022-08-05T21:24:52.660Z,99902.75
2022-08-05T21:27:24.629Z,99901.94
2022-08-05T21:29:53.979Z,99904.16
2022-08-05T21:32:27.692Z,99899.72
2022-08-05T21:35:16.857Z,99899.06
2022-08-05T21:37:53.058Z,99903.63
2022-08-05T21:40:23.294Z,99900.75
2022-08-05T21:42:52.992Z,99905.31
2022-08-05T21:45:25.223Z,99909.72
2022-08-05T21:48:11.258Z,99901.06
2022-08-05T21:50:42.128Z,99909.34
2022-08-05T21:53:27.048Z,99905.16
2022-08-05T21:56:05.809Z,99911.59
2022-08-05T21:58:56.912Z,99911.22
2022-08-05T22:01:26.781Z,99912.25
2022-08-05T22:03:55.258Z,99911.53
2022-08-05T22:06:35.548Z,99908.16
2022-08-05T22:09:13.984Z,99919.31
2022-08-05T22:11:43.612Z,99914.88
2022-08-05T22:14:33.030Z,99913.47
2022-08-05T22:17:03.875Z,99914.50
2022-08-05T22:20:03.196Z,99913.47
2022-08-05T22:22:27.264Z,99907.00
2022-08-05T22:25:21.327Z,99907.66
2022-08-05T22:28:11.211Z,99900.50
2022-08-05T22:30:44.191Z,99911.28
2022-08-05T22:33:57.050Z,99914.09
2022-08-05T22:36:14.599Z,99906.34
2022-08-05T22:38:47.940Z,99915.09
2022-08-05T22:42:05.071Z,99909.00
2022-08-05T22:44:08.274Z,99909.34
2022-08-05T22:46:40.096Z,99907.13
2022-08-05T22:49:23.578Z,99907.50
2022-08-05T22:52:04.395Z,99899.38
2022-08-05T22:54:35.223Z,99906.97
2022-08-05T22:57:05.644Z,99902.53
2022-08-05T22:59:44.008Z,99908.78
2022-08-05T23:02:16.751Z,99905.94
2022-08-05T23:04:51.889Z,99912.06
2022-08-05T23:07:21.860Z,99908.50
2022-08-05T23:09:57.637Z,99908.66
2022-08-05T23:12:33.312Z,99900.66
2022-08-05T23:15:03.571Z,99907.00
2022-08-05T23:17:37.469Z,99907.50
2022-08-05T23:20:21.687Z,99907.34
2022-08-05T23:22:56.118Z,99904.88
2022-08-05T23:25:51.904Z,99909.44
2022-08-05T23:28:15.976Z,99904.19
2022-08-05T23:30:53.088Z,99897.78
2022-08-05T23:33:26.080Z,99902.50
2022-08-05T23:36:13.511Z,99893.97
2022-08-05T23:38:43.551Z,99893.78
2022-08-05T23:41:12.408Z,99886.41
2022-08-05T23:44:05.581Z,99892.00
2022-08-05T23:46:30.809Z,99893.81
2022-08-05T23:49:00.412Z,99896.13
2022-08-05T23:51:52.422Z,99888.06
2022-08-05T23:54:25.695Z,99887.22
2022-08-05T23:56:58.223Z,99882.28
